createdAt,value
2023-03-13T00:00:06.500Z,11.93
2023-03-13T00:02:36.743Z,10.82
2023-03-13T00:05:07.342Z,15.73
2023-03-13T00:07:37.457Z,15.40
2023-03-13T00:10:10.911Z,13.27
2023-03-13T00:12:40.929Z,16.10
2023-03-13T00:15:12.654Z,12.38
2023-03-13T00:17:43.033Z,15.57
2023-03-13T00:20:17.644Z,11.38
2023-03-13T00:22:47.953Z,15.98
2023-03-13T00:25:20.882Z,15.80
2023-03-13T00:27:51.178Z,13.23
2023-03-13T00:30:21.529Z,11.30
2023-03-13T00:32:51.978Z,10.77
2023-03-13T00:35:22.317Z,15.13
2023-03-13T00:37:52.469Z,13.60
2023-03-13T00:40:25.270Z,11.52
2023-03-13T00:42:55.598Z,12.77
2023-03-13T00:45:26.955Z,12.25
2023-03-13T00:47:57.531Z,11.85
2023-03-13T00:50:27.695Z,9.32
2023-03-13T00:52:57.891Z,9.85
2023-03-13T00:55:30.537Z,11.48
2023-03-13T00:58:00.751Z,14.15
2023-03-13T01:00:30.831Z,11.15
2023-03-13T01:03:01.022Z,14.38
2023-03-13T01:05:31.339Z,10.20
2023-03-13T01:08:01.487Z,14.27
2023-03-13T01:10:34.096Z,7.75
2023-03-13T01:13:04.959Z,10.77
2023-03-13T01:15:38.640Z,13.00
2023-03-13T01:18:09.315Z,7.13
2023-03-13T01:20:41.039Z,10.63
2023-03-13T01:23:11.724Z,9.23
2023-03-13T01:25:45.691Z,9.07
2023-03-13T01:28:16.242Z,14.05
2023-03-13T01:30:46.505Z,11.68
2023-03-13T01:33:16.871Z,11.30
2023-03-13T01:35:47.279Z,10.48
2023-03-13T01:38:17.994Z,11.75
2023-03-13T01:40:51.758Z,9.43
2023-03-13T01:43:26.949Z,12.38
2023-03-13T01:46:07.223Z,7.10
2023-03-13T01:48:46.588Z,11.52
2023-03-13T01:51:23.569Z,8.88
2023-03-13T01:53:59.438Z,10.13
2023-03-13T01:56:37.988Z,9.13
2023-03-13T01:59:10.960Z,10.30
2023-03-13T02:01:41.593Z,9.50
2023-03-13T02:04:12.130Z,7.93
2023-03-13T02:06:45.002Z,11.13
2023-03-13T02:09:19.424Z,9.43
2023-03-13T02:11:55.484Z,9.75
2023-03-13T02:14:28.610Z,9.07
2023-03-13T02:16:59.044Z,9.63
2023-03-13T02:19:36.003Z,11.35
2023-03-13T02:22:09.424Z,8.88
2023-03-13T02:24:48.575Z,9.93
2023-03-13T02:27:21.292Z,9.18
2023-03-13T02:29:51.975Z,9.40
2023-03-13T02:32:22.934Z,7.32
2023-03-13T02:37:28.300Z,7.00
2023-03-13T02:40:01.514Z,7.68
2023-03-13T02:42:37.258Z,5.82
2023-03-13T02:45:08.092Z,6.60
2023-03-13T02:47:38.389Z,6.78
2023-03-13T02:50:10.473Z,5.28
2023-03-13T02:52:44.463Z,5.47
2023-03-13T02:55:19.534Z,6.97
2023-03-13T02:57:52.159Z,6.13
2023-03-13T03:00:26.825Z,10.15
2023-03-13T03:02:57.450Z,8.57
2023-03-13T03:05:27.800Z,7.28
2023-03-13T03:07:57.820Z,6.97
2023-03-13T03:10:28.165Z,6.60
2023-03-13T03:13:00.798Z,5.80
2023-03-13T03:15:31.384Z,5.95
2023-03-13T03:18:01.442Z,6.55
2023-03-13T03:20:31.648Z,9.15
2023-03-13T03:23:01.678Z,5.68
2023-03-13T03:25:31.926Z,7.78
2023-03-13T03:28:07.882Z,6.18
2023-03-13T03:30:38.034Z,8.23
2023-03-13T03:33:08.307Z,5.60
2023-03-13T03:35:39.255Z,10.52
2023-03-13T03:40:39.259Z,11.32
2023-03-13T03:43:11.867Z,8.27
2023-03-13T03:45:42.145Z,6.40
2023-03-13T03:48:12.188Z,5.15
2023-03-13T03:50:42.225Z,6.53
2023-03-13T03:53:12.711Z,7.38
2023-03-13T03:55:42.764Z,6.32
2023-03-13T03:58:15.817Z,4.45
2023-03-13T04:00:47.613Z,4.57
2023-03-13T04:03:18.867Z,5.85
2023-03-13T04:05:49.007Z,6.75
2023-03-13T04:08:19.470Z,7.40
2023-03-13T04:10:49.636Z,5.22
2023-03-13T04:13:22.296Z,5.07
2023-03-13T04:15:52.300Z,8.00
2023-03-13T04:18:22.335Z,6.45
2023-03-13T04:20:52.660Z,4.07
2023-03-13T04:23:22.755Z,6.78
2023-03-13T04:25:52.954Z,6.60
2023-03-13T04:28:25.683Z,5.38
2023-03-13T04:30:57.558Z,5.50
2023-03-13T04:33:28.115Z,6.05
2023-03-13T04:35:58.233Z,5.78
2023-03-13T04:38:28.581Z,4.30
2023-03-13T04:40:58.894Z,4.47
2023-03-13T04:43:31.520Z,5.20
2023-03-13T04:46:01.828Z,5.47
2023-03-13T04:48:31.913Z,5.90
2023-03-13T04:51:02.028Z,9.07
2023-03-13T04:53:32.139Z,8.82
2023-03-13T04:56:02.244Z,6.97
2023-03-13T04:58:34.940Z,5.65
2023-03-13T05:01:05.465Z,3.65
2023-03-13T05:03:35.480Z,6.88
2023-03-13T05:06:05.497Z,5.97
2023-03-13T05:08:36.397Z,6.10
2023-03-13T05:11:06.850Z,5.55
2023-03-13T05:13:39.726Z,6.40
2023-03-13T05:16:11.076Z,4.40
2023-03-13T05:18:42.084Z,7.85
2023-03-13T05:23:42.087Z,3.90
2023-03-13T05:26:12.319Z,3.70
2023-03-13T05:28:44.941Z,5.07
2023-03-13T05:31:15.569Z,6.25
2023-03-13T05:33:46.009Z,7.05
2023-03-13T05:36:16.171Z,7.47
2023-03-13T05:38:46.232Z,5.63
2023-03-13T05:41:16.565Z,5.95
2023-03-13T05:43:49.239Z,6.85
2023-03-13T05:46:19.823Z,7.20
2023-03-13T05:48:50.205Z,8.57
2023-03-13T05:51:20.599Z,6.53
2023-03-13T05:53:50.869Z,5.53
2023-03-13T05:56:20.907Z,4.50
2023-03-13T05:58:53.544Z,6.93
2023-03-13T06:01:24.119Z,7.47
2023-03-13T06:03:54.457Z,6.45
2023-03-13T06:06:24.789Z,5.88
2023-03-13T06:08:55.682Z,4.38
2023-03-13T06:11:25.791Z,6.32
2023-03-13T06:13:58.573Z,6.72
2023-03-13T06:16:28.966Z,5.85
2023-03-13T06:18:59.042Z,5.50
2023-03-13T06:21:29.260Z,4.28
2023-03-13T06:23:59.739Z,6.15
2023-03-13T06:26:29.868Z,7.38
2023-03-13T06:29:02.641Z,5.15
2023-03-13T06:31:32.965Z,6.30
2023-03-13T06:34:03.405Z,9.57
2023-03-13T06:36:33.769Z,8.48
2023-03-13T06:39:04.167Z,5.65
2023-03-13T06:41:34.472Z,5.47
2023-03-13T06:44:07.375Z,7.78
2023-03-13T06:46:37.758Z,7.07
2023-03-13T06:49:07.893Z,7.57
2023-03-13T06:51:38.039Z,6.18
2023-03-13T06:54:08.614Z,7.55
2023-03-13T06:56:38.818Z,7.18
2023-03-13T06:59:11.632Z,8.52
2023-03-13T07:01:41.689Z,7.82
2023-03-13T07:04:16.420Z,11.32
2023-03-13T07:06:46.651Z,6.88
2023-03-13T07:09:16.751Z,8.25
2023-03-13T07:11:46.813Z,8.15
2023-03-13T07:14:19.558Z,6.50
2023-03-13T07:16:49.955Z,8.38
2023-03-13T07:19:20.495Z,9.13
2023-03-13T07:21:50.587Z,6.25
2023-03-13T07:24:21.281Z,6.95
2023-03-13T07:27:04.140Z,7.57
2023-03-13T07:29:39.733Z,7.50
2023-03-13T07:32:10.651Z,5.00
2023-03-13T07:37:13.786Z,6.43
2023-03-13T07:39:44.571Z,7.30
2023-03-13T07:42:15.099Z,6.68
2023-03-13T07:44:47.741Z,5.53
2023-03-13T07:47:20.124Z,6.40
2023-03-13T07:49:50.327Z,5.80
2023-03-13T07:52:20.660Z,6.68
2023-03-13T07:54:51.030Z,7.38
2023-03-13T07:57:21.325Z,5.68
2023-03-13T07:59:54.076Z,6.35
2023-03-13T08:02:24.205Z,9.23
2023-03-13T08:04:57.890Z,6.68
2023-03-13T08:07:28.994Z,6.38
2023-03-13T08:09:59.208Z,7.45
2023-03-13T08:12:29.260Z,10.75
2023-03-13T08:15:01.855Z,6.25
2023-03-13T08:17:33.144Z,8.65
2023-03-13T08:20:04.060Z,6.00
2023-03-13T08:22:34.146Z,7.32
2023-03-13T08:25:04.382Z,4.15
2023-03-13T08:27:34.651Z,6.32
2023-03-13T08:30:08.195Z,7.15
2023-03-13T08:32:40.242Z,4.88
2023-03-13T08:35:11.742Z,9.07
2023-03-13T08:37:41.904Z,5.97
2023-03-13T08:40:15.733Z,7.15
2023-03-13T08:42:46.198Z,5.50
2023-03-13T08:45:18.937Z,3.38
2023-03-13T08:47:49.249Z,4.47
2023-03-13T08:50:19.693Z,5.75
2023-03-13T08:52:49.839Z,6.15
2023-03-13T08:55:20.193Z,5.28
2023-03-13T08:57:50.461Z,5.47
2023-03-13T09:00:24.059Z,7.47
2023-03-13T09:02:54.300Z,5.93
2023-03-13T09:05:24.388Z,3.80
2023-03-13T09:07:54.431Z,5.22
2023-03-13T09:10:24.585Z,5.43
2023-03-13T09:12:54.657Z,5.88
2023-03-13T09:15:27.593Z,3.75
2023-03-13T09:17:57.892Z,3.85
2023-03-13T09:20:28.250Z,4.38
2023-03-13T09:22:58.403Z,5.15
2023-03-13T09:25:28.460Z,5.15
2023-03-13T09:27:58.758Z,3.97
2023-03-13T09:30:31.440Z,4.35
2023-03-13T09:33:01.680Z,3.22
2023-03-13T09:35:31.808Z,4.93
2023-03-13T09:38:02.132Z,5.60
2023-03-13T09:40:32.403Z,4.38
2023-03-13T09:43:03.639Z,4.40
2023-03-13T09:45:39.414Z,6.60
2023-03-13T09:48:15.163Z,5.05
2023-03-13T09:50:50.379Z,4.10
2023-03-13T09:53:29.151Z,3.95
2023-03-13T09:56:00.135Z,3.25
2023-03-13T09:58:33.502Z,4.10
2023-03-13T10:01:07.756Z,3.28
2023-03-13T10:03:42.931Z,4.28
2023-03-13T10:06:20.065Z,3.15
2023-03-13T10:08:50.318Z,2.75
2023-03-13T10:11:23.887Z,4.15
2023-03-13T10:14:01.083Z,3.15
2023-03-13T10:19:15.267Z,2.83
2023-03-13T10:21:47.737Z,2.50
2023-03-13T10:24:22.041Z,1.88
2023-03-13T10:26:52.270Z,4.63
2023-03-13T10:29:27.011Z,3.28
2023-03-13T10:32:04.636Z,2.95
2023-03-13T10:34:52.438Z,2.80
2023-03-13T10:37:25.812Z,3.60
2023-03-13T10:39:56.532Z,3.10
2023-03-13T10:45:02.720Z,5.18
2023-03-13T10:47:37.814Z,3.90
2023-03-13T10:50:08.577Z,3.53
2023-03-13T10:52:45.695Z,2.88
2023-03-13T10:58:00.097Z,3.38
2023-03-13T11:00:38.895Z,4.55
2023-03-13T11:03:22.156Z,2.88
2023-03-13T11:05:58.728Z,5.18
2023-03-13T11:08:31.149Z,5.38
2023-03-13T11:11:03.055Z,3.33
2023-03-13T11:13:43.066Z,4.10
2023-03-13T11:16:23.120Z,4.00
2023-03-13T11:19:20.093Z,6.28
2023-03-13T11:24:35.396Z,2.88
2023-03-13T11:27:18.272Z,2.30
2023-03-13T11:29:58.129Z,4.85
2023-03-13T11:32:35.700Z,3.28
2023-03-13T11:35:18.012Z,6.28
2023-03-13T11:37:48.214Z,2.13
2023-03-13T11:40:23.393Z,2.55
2023-03-13T11:43:23.971Z,5.65
2023-03-13T11:46:02.955Z,4.05
2023-03-13T11:48:58.604Z,3.97
2023-03-13T11:51:39.375Z,3.10
2023-03-13T11:54:26.408Z,4.43
2023-03-13T11:57:00.232Z,3.85
2023-03-13T11:59:35.818Z,3.60
2023-03-13T12:02:12.224Z,2.25
2023-03-13T12:04:45.606Z,4.75
2023-03-13T12:07:24.722Z,6.13
2023-03-13T12:09:58.716Z,3.88
2023-03-13T12:12:41.620Z,8.75
2023-03-13T12:15:23.612Z,5.88
2023-03-13T12:17:57.832Z,7.18
2023-03-13T12:20:30.198Z,10.27
2023-03-13T12:23:21.412Z,5.68
2023-03-13T12:25:57.992Z,6.50
2023-03-13T12:28:34.884Z,5.18
2023-03-13T12:31:18.255Z,5.03
2023-03-13T12:33:54.877Z,4.18
2023-03-13T12:36:32.182Z,3.13
2023-03-13T12:39:13.792Z,3.30
2023-03-13T12:41:46.556Z,3.20
2023-03-13T12:44:21.672Z,5.97
2023-03-13T12:47:01.434Z,2.80
2023-03-13T12:49:51.697Z,3.15
2023-03-13T12:55:41.018Z,6.57
2023-03-13T12:58:29.354Z,6.47
2023-03-13T13:01:05.047Z,3.22
2023-03-13T13:03:38.918Z,3.03
2023-03-13T13:06:11.481Z,4.88
2023-03-13T13:08:44.120Z,4.93
2023-03-13T13:11:55.436Z,4.22
2023-03-13T13:15:00.539Z,4.25
2023-03-13T13:17:50.501Z,5.68
2023-03-13T13:20:51.510Z,3.40
2023-03-13T13:23:35.084Z,5.32
2023-03-13T13:26:37.706Z,4.50
2023-03-13T13:29:57.690Z,5.03
2023-03-13T13:32:42.258Z,5.20
2023-03-13T13:35:31.731Z,4.65
2023-03-13T13:38:40.523Z,5.03
2023-03-13T13:41:44.734Z,3.45
2023-03-13T13:44:32.593Z,3.47
2023-03-13T13:47:02.925Z,5.45
2023-03-13T13:49:41.819Z,3.92
2023-03-13T13:52:42.662Z,5.55
2023-03-13T13:55:44.828Z,8.02
2023-03-13T13:58:20.405Z,5.40
2023-03-13T14:00:55.984Z,5.53
2023-03-13T14:03:27.387Z,6.00
2023-03-13T14:06:04.637Z,5.07
2023-03-13T14:11:24.542Z,5.70
2023-03-13T14:14:12.410Z,5.22
2023-03-13T14:16:46.475Z,6.28
2023-03-13T14:19:28.288Z,5.85
2023-03-13T14:22:05.588Z,6.57
2023-03-13T14:27:17.226Z,4.95
2023-03-13T14:30:04.988Z,3.50
2023-03-13T14:32:35.833Z,4.45
2023-03-13T14:35:07.861Z,4.88
2023-03-13T14:37:44.149Z,6.65
2023-03-13T14:40:24.587Z,23.90
2023-03-13T14:42:56.715Z,5.15
2023-03-13T14:45:32.962Z,5.20
2023-03-13T14:48:08.698Z,5.25
2023-03-13T14:50:39.129Z,8.25
2023-03-13T14:53:16.612Z,6.25
2023-03-13T14:55:46.894Z,4.47
2023-03-13T14:58:34.514Z,3.78
2023-03-13T15:01:16.830Z,5.43
2023-03-13T15:03:48.144Z,5.20
2023-03-13T15:06:21.183Z,6.50
2023-03-13T15:09:18.155Z,9.80
2023-03-13T15:11:57.602Z,7.38
2023-03-13T15:14:39.495Z,4.65
2023-03-13T15:17:18.420Z,7.88
2023-03-13T15:19:53.201Z,5.43
2023-03-13T15:22:28.886Z,7.97
2023-03-13T15:25:07.201Z,4.78
2023-03-13T15:27:37.992Z,7.43
2023-03-13T15:30:09.513Z,6.03
2023-03-13T15:32:42.698Z,5.63
2023-03-13T15:35:27.364Z,5.15
2023-03-13T15:37:58.401Z,5.20
2023-03-13T15:40:31.821Z,6.70
2023-03-13T15:43:04.443Z,3.33
2023-03-13T15:45:34.977Z,6.32
2023-03-13T15:48:06.163Z,6.22
2023-03-13T15:50:36.432Z,4.68
2023-03-13T15:53:07.369Z,6.82
2023-03-13T15:55:40.572Z,5.15
2023-03-13T15:58:14.299Z,7.50
2023-03-13T16:00:45.786Z,5.47
2023-03-13T16:03:19.416Z,7.72
2023-03-13T16:05:52.202Z,7.47
2023-03-13T16:08:36.258Z,8.98
2023-03-13T16:11:10.351Z,8.70
2023-03-13T16:13:42.714Z,7.70
2023-03-13T16:16:23.411Z,7.40
2023-03-13T16:18:54.562Z,9.57
2023-03-13T16:21:26.791Z,10.35
2023-03-13T16:23:57.227Z,6.43
2023-03-13T16:26:31.945Z,6.63
2023-03-13T16:29:02.433Z,4.93
2023-03-13T16:31:34.265Z,8.05
2023-03-13T16:34:04.460Z,5.10
2023-03-13T16:36:35.852Z,3.88
2023-03-13T16:39:09.126Z,4.95
2023-03-13T16:41:42.114Z,6.57
2023-03-13T16:44:12.273Z,5.47
2023-03-13T16:46:55.660Z,4.53
2023-03-13T16:49:34.391Z,5.88
2023-03-13T16:52:04.533Z,4.60
2023-03-13T16:54:34.580Z,7.07
2023-03-13T16:57:12.042Z,5.70
2023-03-13T16:59:42.178Z,5.80
2023-03-13T17:02:18.598Z,5.35
2023-03-13T17:04:49.345Z,4.35
2023-03-13T17:07:24.450Z,5.68
2023-03-13T17:09:55.457Z,7.00
2023-03-13T17:12:28.191Z,5.20
2023-03-13T17:14:58.419Z,4.10
2023-03-13T17:17:28.713Z,6.32
2023-03-13T17:19:58.762Z,4.47
2023-03-13T17:22:29.434Z,5.97
2023-03-13T17:24:59.431Z,6.82
2023-03-13T17:27:32.319Z,4.85
2023-03-13T17:30:02.447Z,7.03
2023-03-13T17:32:32.838Z,6.75
2023-03-13T17:35:03.072Z,6.70
2023-03-13T17:37:40.195Z,6.15
2023-03-13T17:40:19.476Z,6.63
2023-03-13T17:42:52.596Z,9.07
2023-03-13T17:45:23.311Z,5.40
2023-03-13T17:47:54.439Z,8.30
2023-03-13T17:50:27.000Z,7.75
2023-03-13T17:52:57.603Z,4.10
2023-03-13T17:55:27.779Z,5.35
2023-03-13T17:58:00.454Z,4.32
2023-03-13T18:00:32.756Z,7.80
2023-03-13T18:03:03.053Z,4.18
2023-03-13T18:05:33.166Z,6.93
2023-03-13T18:08:03.485Z,6.60
2023-03-13T18:10:33.820Z,9.57
2023-03-13T18:13:06.723Z,6.75
2023-03-13T18:15:36.968Z,6.53
2023-03-13T18:18:07.384Z,7.60
2023-03-13T18:20:37.648Z,6.43
2023-03-13T18:23:07.746Z,6.60
2023-03-13T18:25:37.854Z,7.53
2023-03-13T18:28:14.382Z,10.13
2023-03-13T18:30:44.620Z,7.88
2023-03-13T18:33:14.916Z,9.77
2023-03-13T18:35:45.261Z,8.57
2023-03-13T18:38:16.162Z,8.45
2023-03-13T18:43:18.707Z,11.65
2023-03-13T18:45:48.829Z,11.23
2023-03-13T18:48:19.004Z,10.35
2023-03-13T18:50:49.447Z,10.82
2023-03-13T18:53:19.876Z,9.75
2023-03-13T18:55:50.155Z,14.57
2023-03-13T18:58:22.946Z,14.70
2023-03-13T19:00:53.373Z,7.43
2023-03-13T19:03:24.013Z,11.15
2023-03-13T19:06:01.417Z,13.55
2023-03-13T19:11:01.520Z,13.55
2023-03-13T19:13:38.442Z,14.80
2023-03-13T19:16:16.584Z,10.18
2023-03-13T19:18:47.468Z,9.90
2023-03-13T19:23:49.322Z,9.93
2023-03-13T19:26:21.625Z,10.15
2023-03-13T19:28:54.531Z,13.80
2023-03-13T19:31:25.071Z,14.55
2023-03-13T19:33:56.149Z,20.33
2023-03-13T19:36:27.657Z,13.93
2023-03-13T19:38:57.884Z,11.43
2023-03-13T19:41:28.144Z,12.80
2023-03-13T19:44:01.007Z,9.90
2023-03-13T19:46:32.793Z,14.88
2023-03-13T19:49:04.888Z,18.17
2023-03-13T19:51:35.698Z,12.07
2023-03-13T19:54:05.864Z,12.98
2023-03-13T19:56:36.689Z,10.90
2023-03-13T19:59:10.912Z,15.40
2023-03-13T20:01:41.226Z,13.00
2023-03-13T20:04:11.602Z,16.73
2023-03-13T20:06:43.188Z,12.23
2023-03-13T20:09:15.390Z,13.52
2023-03-13T20:11:45.771Z,16.95
2023-03-13T20:14:18.803Z,17.63
2023-03-13T20:16:49.211Z,13.32
2023-03-13T20:19:19.545Z,17.75
2023-03-13T20:21:49.567Z,11.70
2023-03-13T20:24:19.917Z,14.90
2023-03-13T20:26:50.095Z,14.70
2023-03-13T20:29:23.004Z,18.02
2023-03-13T20:31:53.110Z,14.40
2023-03-13T20:34:23.271Z,15.38
2023-03-13T20:36:56.640Z,11.45
2023-03-13T20:39:27.399Z,11.35
2023-03-13T20:42:02.588Z,8.65
2023-03-13T20:44:35.681Z,10.18
2023-03-13T20:47:05.983Z,7.82
2023-03-13T20:49:36.541Z,9.23
2023-03-13T20:52:06.865Z,5.43
2023-03-13T20:54:37.678Z,6.32
2023-03-13T20:57:08.684Z,4.35
2023-03-13T20:59:41.457Z,7.47
2023-03-13T21:02:11.912Z,6.13
2023-03-13T21:04:43.866Z,5.20
2023-03-13T21:07:14.345Z,5.72
2023-03-13T21:09:44.660Z,4.50
2023-03-13T21:12:15.190Z,4.97
2023-03-13T21:14:49.052Z,5.90
2023-03-13T21:17:19.294Z,5.20
2023-03-13T21:19:49.528Z,7.88
2023-03-13T21:22:19.673Z,6.45
2023-03-13T21:24:51.350Z,5.88
2023-03-13T21:27:21.510Z,6.60
2023-03-13T21:29:54.341Z,7.65
2023-03-13T21:32:24.513Z,7.18
2023-03-13T21:34:55.421Z,6.70
2023-03-13T21:37:25.937Z,7.47
2023-03-13T21:39:56.772Z,6.88
2023-03-13T21:42:26.871Z,6.13
2023-03-13T21:45:00.346Z,6.22
2023-03-13T21:47:31.757Z,5.80
2023-03-13T21:50:01.865Z,5.25
2023-03-13T21:52:34.405Z,5.18
2023-03-13T21:55:07.855Z,6.57
2023-03-13T22:00:15.949Z,4.78
2023-03-13T22:02:46.241Z,5.15
2023-03-13T22:05:16.632Z,5.40
2023-03-13T22:07:46.655Z,3.97
2023-03-13T22:10:16.888Z,5.50
2023-03-13T22:12:47.172Z,5.50
2023-03-13T22:15:20.031Z,7.40
2023-03-13T22:17:50.268Z,6.72
2023-03-13T22:20:20.689Z,7.15
2023-03-13T22:22:50.715Z,7.60
2023-03-13T22:25:21.212Z,8.45
2023-03-13T22:27:51.303Z,6.43
2023-03-13T22:30:24.268Z,6.78
2023-03-13T22:32:54.632Z,3.70
2023-03-13T22:35:24.834Z,4.75
2023-03-13T22:37:55.160Z,5.93
2023-03-13T22:40:25.278Z,5.57
2023-03-13T22:42:55.512Z,6.28
2023-03-13T22:45:28.344Z,5.32
2023-03-13T22:47:58.652Z,7.57
2023-03-13T22:50:28.881Z,5.82
2023-03-13T22:52:58.952Z,7.32
2023-03-13T22:55:29.485Z,6.45
2023-03-13T22:57:59.785Z,5.85
2023-03-13T23:00:32.611Z,4.68
2023-03-13T23:03:02.886Z,6.03
2023-03-13T23:05:33.051Z,6.72
2023-03-13T23:08:03.294Z,4.70
2023-03-13T23:10:33.583Z,5.65
2023-03-13T23:13:03.810Z,4.50
2023-03-13T23:15:54.666Z,6.07
2023-03-13T23:18:26.936Z,6.82
2023-03-13T23:20:57.428Z,5.72
2023-03-13T23:23:27.711Z,6.05
2023-03-13T23:25:58.288Z,7.85
2023-03-13T23:28:28.553Z,6.47
2023-03-13T23:31:01.284Z,4.50
2023-03-13T23:33:32.747Z,7.47
2023-03-13T23:36:08.837Z,7.03
2023-03-13T23:38:39.276Z,6.07
2023-03-13T23:41:10.051Z,10.15
2023-03-13T23:43:40.372Z,6.07
2023-03-13T23:46:18.500Z,6.30
2023-03-13T23:48:48.570Z,5.07
2023-03-13T23:51:18.870Z,5.80
2023-03-13T23:53:48.903Z,3.72
2023-03-13T23:56:19.202Z,9.15
2023-03-13T23:58:49.429Z,6.43
